createdAt,value
2017-10-06T00:00:02.372Z,0.00
2017-10-06T00:01:02.352Z,0.00
2017-10-06T00:02:23.326Z,0.00
2017-10-06T00:03:02.300Z,0.00
2017-10-06T00:04:02.282Z,0.00
2017-10-06T00:05:02.259Z,0.00
2017-10-06T00:06:02.244Z,0.00
2017-10-06T00:07:02.216Z,0.00
2017-10-06T00:08:23.186Z,0.00
2017-10-06T00:09:02.176Z,0.00
2017-10-06T00:10:02.146Z,0.00
2017-10-06T00:11:02.141Z,0.00
2017-10-06T00:12:02.104Z,0.00
2017-10-06T00:13:02.083Z,0.00
2017-10-06T00:14:23.082Z,0.00
2017-10-06T00:15:02.040Z,0.00
2017-10-06T00:16:02.019Z,0.00
2017-10-06T00:17:01.991Z,0.00
2017-10-06T00:18:01.976Z,0.00
2017-10-06T00:19:01.951Z,0.00
2017-10-06T00:20:22.929Z,0.00
2017-10-06T00:21:01.909Z,0.00
2017-10-06T00:22:01.892Z,0.00
2017-10-06T00:23:01.869Z,0.00
2017-10-06T00:24:01.847Z,0.00
2017-10-06T00:25:01.821Z,0.00
2017-10-06T00:26:22.839Z,0.00
2017-10-06T00:27:01.817Z,0.00
2017-10-06T00:28:01.762Z,0.00
2017-10-06T00:29:01.728Z,0.00
2017-10-06T00:30:01.721Z,0.00
2017-10-06T00:31:01.711Z,0.00
2017-10-06T00:32:22.656Z,0.00
2017-10-06T00:33:01.674Z,0.00
2017-10-06T00:34:01.622Z,0.00
2017-10-06T00:35:01.604Z,0.00
2017-10-06T00:36:01.577Z,0.00
2017-10-06T00:37:01.581Z,0.00
2017-10-06T00:38:22.568Z,0.00
2017-10-06T00:39:01.520Z,0.00
2017-10-06T00:40:01.491Z,0.00
2017-10-06T00:41:01.472Z,0.00
2017-10-06T00:42:01.450Z,0.00
2017-10-06T00:43:01.440Z,0.00
2017-10-06T00:44:22.402Z,0.00
2017-10-06T00:45:01.377Z,0.00
2017-10-06T00:46:01.353Z,0.00
2017-10-06T00:47:01.355Z,0.00
2017-10-06T00:48:01.322Z,0.00
2017-10-06T00:49:01.291Z,0.00
2017-10-06T00:50:22.277Z,0.00
2017-10-06T00:51:01.266Z,0.00
2017-10-06T00:52:01.229Z,0.00
2017-10-06T00:53:01.225Z,0.00
2017-10-06T00:54:01.180Z,0.00
2017-10-06T00:55:01.156Z,0.00
2017-10-06T00:56:22.141Z,0.00
2017-10-06T00:57:01.123Z,0.00
2017-10-06T00:58:01.132Z,0.00
2017-10-06T00:59:01.071Z,0.00
2017-10-06T01:00:01.049Z,0.00
2017-10-06T01:01:01.034Z,0.00
2017-10-06T01:02:22.011Z,0.00
2017-10-06T01:03:00.985Z,0.00
2017-10-06T01:04:00.970Z,0.00
2017-10-06T01:05:00.951Z,0.00
2017-10-06T01:06:00.930Z,0.00
2017-10-06T01:07:00.900Z,0.00
2017-10-06T01:08:21.880Z,0.00
2017-10-06T01:09:00.863Z,0.00
2017-10-06T01:10:00.857Z,0.00
2017-10-06T01:11:00.815Z,0.00
2017-10-06T01:12:00.796Z,0.00
2017-10-06T01:13:00.775Z,0.00
2017-10-06T01:14:21.751Z,0.00
2017-10-06T01:15:00.726Z,0.00
2017-10-06T01:16:00.711Z,0.00
2017-10-06T01:17:00.700Z,0.00
2017-10-06T01:18:00.672Z,0.00
2017-10-06T01:19:00.661Z,0.00
2017-10-06T01:20:21.641Z,0.00
2017-10-06T01:21:00.592Z,0.00
2017-10-06T01:22:00.585Z,0.00
2017-10-06T01:23:00.567Z,0.00
2017-10-06T01:24:00.539Z,0.00
2017-10-06T01:25:00.515Z,0.00
2017-10-06T01:26:21.509Z,0.00
2017-10-06T01:27:00.476Z,0.00
2017-10-06T01:28:00.457Z,0.00
2017-10-06T01:29:00.425Z,0.00
2017-10-06T01:30:00.401Z,0.00
2017-10-06T01:31:00.395Z,0.00
2017-10-06T01:32:21.376Z,0.00
2017-10-06T01:33:00.342Z,0.00
2017-10-06T01:34:00.326Z,0.00
2017-10-06T01:35:00.299Z,0.00
2017-10-06T01:36:00.287Z,0.00
2017-10-06T01:37:00.275Z,0.00
2017-10-06T01:38:21.238Z,0.00
2017-10-06T01:39:00.213Z,0.00
2017-10-06T01:40:00.196Z,0.00
2017-10-06T01:41:00.173Z,0.00
2017-10-06T01:42:00.155Z,0.00
2017-10-06T01:43:00.136Z,0.00
2017-10-06T01:44:21.105Z,0.00
2017-10-06T01:45:00.089Z,0.00
2017-10-06T01:46:00.075Z,0.00
2017-10-06T01:47:00.095Z,0.00
2017-10-06T01:48:00.019Z,0.00
2017-10-06T01:49:00.008Z,0.00
2017-10-06T01:50:20.980Z,0.00
2017-10-06T01:50:59.985Z,0.00
2017-10-06T01:51:59.938Z,0.00
2017-10-06T01:52:59.919Z,0.00
2017-10-06T01:53:59.902Z,0.00
2017-10-06T01:54:59.878Z,0.00
2017-10-06T01:56:20.858Z,0.00
2017-10-06T01:56:59.836Z,0.00
2017-10-06T01:57:59.821Z,0.00
2017-10-06T01:58:59.801Z,0.00
2017-10-06T01:59:59.770Z,0.00
2017-10-06T02:00:59.742Z,0.00
2017-10-06T02:02:20.746Z,0.00
2017-10-06T02:02:59.699Z,0.00
2017-10-06T02:03:59.692Z,0.00
2017-10-06T02:04:59.671Z,0.00
2017-10-06T02:05:59.656Z,0.00
2017-10-06T02:06:59.626Z,0.00
2017-10-06T02:08:20.602Z,0.00
2017-10-06T02:08:59.574Z,0.00
2017-10-06T02:09:59.556Z,0.00
2017-10-06T02:10:59.569Z,0.00
2017-10-06T02:11:59.512Z,0.00
2017-10-06T02:12:59.498Z,0.00
2017-10-06T02:14:20.467Z,0.00
2017-10-06T02:14:59.441Z,0.00
2017-10-06T02:15:59.432Z,0.00
2017-10-06T02:16:59.410Z,0.00
2017-10-06T02:17:59.393Z,0.00
2017-10-06T02:18:59.360Z,0.00
2017-10-06T02:20:20.349Z,0.00
2017-10-06T02:20:59.341Z,0.00
2017-10-06T02:21:59.303Z,0.00
2017-10-06T02:22:59.277Z,0.00
2017-10-06T02:23:59.262Z,0.00
2017-10-06T02:24:59.247Z,0.00
2017-10-06T02:26:20.225Z,0.00
2017-10-06T02:26:59.196Z,0.00
2017-10-06T02:27:59.193Z,0.00
2017-10-06T02:28:59.186Z,0.00
2017-10-06T02:29:59.133Z,0.00
2017-10-06T02:30:59.117Z,0.00
2017-10-06T02:32:20.100Z,0.00
2017-10-06T02:32:59.064Z,0.00
2017-10-06T02:33:59.045Z,0.00
2017-10-06T02:34:59.048Z,0.00
2017-10-06T02:35:59.033Z,0.00
2017-10-06T02:36:58.993Z,0.00
2017-10-06T02:38:19.961Z,0.00
2017-10-06T02:38:58.940Z,0.00
2017-10-06T02:39:58.914Z,0.00
2017-10-06T02:40:58.910Z,0.00
2017-10-06T02:41:58.875Z,0.00
2017-10-06T02:42:58.854Z,0.00
2017-10-06T02:44:19.835Z,0.00
2017-10-06T02:44:58.805Z,0.00
2017-10-06T02:45:58.795Z,0.00
2017-10-06T02:46:58.811Z,0.00
2017-10-06T02:47:58.742Z,0.00
2017-10-06T02:48:58.719Z,0.00
2017-10-06T02:50:19.722Z,0.00
2017-10-06T02:50:58.684Z,0.00
2017-10-06T02:51:58.658Z,0.00
2017-10-06T02:52:58.643Z,0.00
2017-10-06T02:53:58.636Z,0.00
2017-10-06T02:54:58.603Z,0.00
2017-10-06T02:56:19.579Z,0.00
2017-10-06T02:56:58.565Z,0.00
2017-10-06T02:57:58.534Z,0.00
2017-10-06T02:58:58.511Z,0.00
2017-10-06T02:59:58.490Z,0.00
2017-10-06T03:00:58.473Z,0.00
2017-10-06T03:02:19.447Z,0.00
2017-10-06T03:02:58.476Z,0.00
2017-10-06T03:03:58.410Z,0.00
2017-10-06T03:04:58.398Z,0.00
2017-10-06T03:05:58.375Z,0.00
2017-10-06T03:06:58.353Z,0.00
2017-10-06T03:08:19.323Z,0.00
2017-10-06T03:08:58.301Z,0.00
2017-10-06T03:09:58.282Z,0.00
2017-10-06T03:10:58.258Z,0.00
2017-10-06T03:11:58.279Z,0.00
2017-10-06T03:12:58.222Z,0.00
2017-10-06T03:14:19.216Z,0.00
2017-10-06T03:14:58.189Z,0.00
2017-10-06T03:15:58.160Z,0.00
2017-10-06T03:16:58.149Z,0.00
2017-10-06T03:17:58.120Z,0.00
2017-10-06T03:18:58.104Z,0.00
2017-10-06T03:20:19.108Z,0.00
2017-10-06T03:20:58.052Z,0.00
2017-10-06T03:21:58.086Z,0.00
2017-10-06T03:22:58.017Z,0.00
2017-10-06T03:23:58.023Z,0.00
2017-10-06T03:24:57.973Z,0.00
2017-10-06T03:26:18.961Z,0.00
2017-10-06T03:26:57.973Z,0.00
2017-10-06T03:27:57.936Z,0.00
2017-10-06T03:28:57.917Z,0.00
2017-10-06T03:29:57.889Z,0.00
2017-10-06T03:30:57.872Z,0.00
2017-10-06T03:32:18.878Z,0.00
2017-10-06T03:32:57.812Z,0.00
2017-10-06T03:33:57.787Z,0.00
2017-10-06T03:34:57.801Z,0.00
2017-10-06T03:35:57.779Z,0.00
2017-10-06T03:36:57.724Z,0.00
2017-10-06T03:38:18.715Z,0.00
2017-10-06T03:38:57.679Z,0.00
2017-10-06T03:39:57.659Z,0.00
2017-10-06T03:40:57.632Z,0.00
2017-10-06T03:41:57.626Z,0.00
2017-10-06T03:42:57.601Z,0.00
2017-10-06T03:44:18.581Z,0.00
2017-10-06T03:44:57.552Z,0.00
2017-10-06T03:45:57.549Z,0.00
2017-10-06T03:46:57.512Z,0.00
2017-10-06T03:47:57.510Z,0.00
2017-10-06T03:48:57.474Z,0.00
2017-10-06T03:50:18.482Z,0.00
2017-10-06T03:50:57.439Z,0.00
2017-10-06T03:51:57.411Z,0.00
2017-10-06T03:52:57.398Z,0.00
2017-10-06T03:53:57.391Z,0.00
2017-10-06T03:54:57.354Z,0.00
2017-10-06T03:56:18.381Z,0.00
2017-10-06T03:56:57.306Z,0.00
2017-10-06T03:57:57.305Z,0.00
2017-10-06T03:58:57.266Z,0.00
2017-10-06T03:59:57.263Z,0.00
2017-10-06T04:00:57.235Z,0.00
2017-10-06T04:02:18.208Z,0.00
2017-10-06T04:02:57.185Z,0.00
2017-10-06T04:03:57.173Z,0.00
2017-10-06T04:04:57.136Z,0.00
2017-10-06T04:05:57.121Z,0.00
2017-10-06T04:06:57.107Z,0.00
2017-10-06T04:08:18.087Z,0.00
2017-10-06T04:08:57.073Z,0.00
2017-10-06T04:09:57.092Z,0.00
2017-10-06T04:10:57.003Z,0.00
2017-10-06T04:11:56.992Z,0.00
2017-10-06T04:12:56.997Z,0.00
2017-10-06T04:14:18.021Z,0.00
2017-10-06T04:14:56.940Z,0.00
2017-10-06T04:15:56.927Z,0.00
2017-10-06T04:16:56.878Z,0.00
2017-10-06T04:17:56.903Z,0.00
2017-10-06T04:18:56.866Z,0.00
2017-10-06T04:20:17.825Z,0.00
2017-10-06T04:20:56.803Z,0.00
2017-10-06T04:21:56.792Z,0.00
2017-10-06T04:22:56.780Z,0.00
2017-10-06T04:23:56.739Z,0.00
2017-10-06T04:24:56.734Z,0.00
2017-10-06T04:26:17.708Z,0.00
2017-10-06T04:26:56.671Z,0.00
2017-10-06T04:27:56.651Z,0.00
2017-10-06T04:28:56.673Z,0.00
2017-10-06T04:29:56.624Z,0.00
2017-10-06T04:30:56.606Z,0.00
2017-10-06T04:32:17.566Z,0.00
2017-10-06T04:32:56.590Z,0.00
2017-10-06T04:33:56.537Z,0.00
2017-10-06T04:34:56.501Z,0.00
2017-10-06T04:35:56.478Z,0.00
2017-10-06T04:36:56.495Z,0.00
2017-10-06T04:38:17.432Z,0.00
2017-10-06T04:38:56.410Z,0.00
2017-10-06T04:39:56.385Z,0.00
2017-10-06T04:40:56.389Z,0.00
2017-10-06T04:41:56.353Z,0.00
2017-10-06T04:42:56.348Z,0.00
2017-10-06T04:44:17.321Z,0.00
2017-10-06T04:44:56.297Z,0.00
2017-10-06T04:45:56.284Z,0.00
2017-10-06T04:46:56.235Z,0.00
2017-10-06T04:47:56.229Z,0.00
2017-10-06T04:48:56.207Z,0.00
2017-10-06T04:50:17.174Z,0.00
2017-10-06T04:50:56.161Z,0.00
2017-10-06T04:51:56.143Z,0.00
2017-10-06T04:52:56.135Z,0.00
2017-10-06T04:53:56.097Z,0.00
2017-10-06T04:54:56.076Z,0.00
2017-10-06T04:56:17.060Z,0.00
2017-10-06T04:56:56.027Z,0.00
2017-10-06T04:57:56.021Z,0.00
2017-10-06T04:58:55.982Z,0.00
2017-10-06T04:59:55.960Z,0.00
2017-10-06T05:00:55.946Z,0.00
2017-10-06T05:02:16.919Z,0.00
2017-10-06T05:02:55.900Z,0.00
2017-10-06T05:03:55.884Z,0.00
2017-10-06T05:04:55.857Z,0.00
2017-10-06T05:05:55.840Z,0.00
2017-10-06T05:06:55.821Z,0.00
2017-10-06T05:08:16.791Z,0.00
2017-10-06T05:08:55.772Z,0.00
2017-10-06T05:09:55.753Z,0.00
2017-10-06T05:10:55.749Z,0.00
2017-10-06T05:11:55.709Z,0.00
2017-10-06T05:12:55.682Z,0.00
2017-10-06T05:14:16.670Z,0.00
2017-10-06T05:14:55.680Z,0.00
2017-10-06T05:15:55.650Z,0.00
2017-10-06T05:16:55.626Z,0.00
2017-10-06T05:17:55.676Z,0.00
2017-10-06T05:18:55.583Z,0.00
2017-10-06T05:20:16.560Z,0.00
2017-10-06T05:20:55.513Z,0.00
2017-10-06T05:21:55.498Z,0.00
2017-10-06T05:22:55.479Z,0.00
2017-10-06T05:23:55.452Z,0.00
2017-10-06T05:24:55.440Z,0.00
2017-10-06T05:26:16.413Z,0.00
2017-10-06T05:26:55.392Z,0.00
2017-10-06T05:27:55.367Z,5.63
2017-10-06T05:28:55.345Z,5.63
2017-10-06T05:29:55.330Z,5.63
2017-10-06T05:30:55.305Z,5.63
2017-10-06T05:32:16.332Z,5.63
2017-10-06T05:32:55.267Z,11.25
2017-10-06T05:33:55.251Z,11.25
2017-10-06T05:34:55.221Z,11.25
2017-10-06T05:35:55.207Z,11.25
2017-10-06T05:36:55.176Z,11.25
2017-10-06T05:38:16.167Z,11.25
2017-10-06T05:38:55.137Z,11.25
2017-10-06T05:39:55.132Z,11.25
2017-10-06T05:40:55.099Z,5.63
2017-10-06T05:41:55.094Z,5.63
2017-10-06T05:42:55.059Z,5.63
2017-10-06T05:44:16.030Z,11.25
2017-10-06T05:44:55.009Z,16.88
2017-10-06T05:45:55.017Z,22.50
2017-10-06T05:46:54.973Z,22.50
2017-10-06T05:47:54.945Z,22.50
2017-10-06T05:48:54.938Z,28.13
2017-10-06T05:50:15.913Z,28.13
2017-10-06T05:50:54.902Z,28.13
2017-10-06T05:51:54.873Z,28.13
2017-10-06T05:52:54.837Z,28.13
2017-10-06T05:53:54.823Z,28.13
2017-10-06T05:54:54.799Z,28.13
2017-10-06T05:56:15.791Z,28.13
2017-10-06T05:56:54.769Z,28.13
2017-10-06T05:57:54.744Z,28.13
2017-10-06T05:58:54.718Z,28.13
2017-10-06T05:59:54.702Z,28.13
2017-10-06T06:00:54.686Z,28.13
2017-10-06T06:02:15.654Z,39.38
2017-10-06T06:02:54.644Z,39.38
2017-10-06T06:03:54.617Z,39.38
2017-10-06T06:04:54.600Z,39.38
2017-10-06T06:05:54.576Z,39.38
2017-10-06T06:06:54.557Z,45.00
2017-10-06T06:08:15.537Z,56.25
2017-10-06T06:08:54.510Z,73.13
2017-10-06T06:09:54.495Z,78.75
2017-10-06T06:10:54.488Z,67.50
2017-10-06T06:11:54.463Z,61.88
2017-10-06T06:12:54.468Z,67.50
2017-10-06T06:14:15.416Z,67.50
2017-10-06T06:14:54.382Z,56.25
2017-10-06T06:15:54.389Z,45.00
2017-10-06T06:16:54.351Z,45.00
2017-10-06T06:17:54.343Z,45.00
2017-10-06T06:18:54.303Z,39.38
2017-10-06T06:20:15.280Z,39.38
2017-10-06T06:20:54.261Z,45.00
2017-10-06T06:21:54.237Z,39.38
2017-10-06T06:22:54.211Z,45.00
2017-10-06T06:23:54.202Z,50.63
2017-10-06T06:24:54.177Z,61.88
2017-10-06T06:26:15.158Z,78.75
2017-10-06T06:26:54.132Z,95.63
2017-10-06T06:27:54.109Z,123.75
2017-10-06T06:28:54.096Z,135.00
2017-10-06T06:29:54.076Z,123.75
2017-10-06T06:30:54.053Z,112.50
2017-10-06T06:32:15.025Z,118.13
2017-10-06T06:32:54.005Z,123.75
2017-10-06T06:33:53.987Z,129.38
2017-10-06T06:34:53.958Z,140.63
2017-10-06T06:35:53.965Z,157.50
2017-10-06T06:36:53.929Z,151.88
2017-10-06T06:38:14.928Z,123.75
2017-10-06T06:38:53.892Z,112.50
2017-10-06T06:39:53.855Z,106.88
2017-10-06T06:40:53.828Z,106.88
2017-10-06T06:41:53.817Z,106.88
2017-10-06T06:42:53.841Z,118.13
2017-10-06T06:44:14.786Z,157.50
2017-10-06T06:44:53.756Z,185.63
2017-10-06T06:45:53.741Z,151.88
2017-10-06T06:46:53.709Z,129.38
2017-10-06T06:47:53.693Z,135.00
2017-10-06T06:48:53.666Z,151.88
2017-10-06T06:50:14.658Z,163.13
2017-10-06T06:50:53.641Z,180.00
2017-10-06T06:51:53.619Z,196.88
2017-10-06T06:52:53.589Z,191.25
2017-10-06T06:53:53.573Z,185.63
2017-10-06T06:54:53.542Z,174.38
2017-10-06T06:56:14.538Z,253.13
2017-10-06T06:56:53.504Z,225.00
2017-10-06T06:57:53.518Z,180.00
2017-10-06T06:58:53.457Z,151.88
2017-10-06T06:59:53.445Z,140.63
2017-10-06T07:00:53.451Z,151.88
2017-10-06T07:02:17.253Z,180.00
2017-10-06T07:02:53.392Z,225.00
2017-10-06T07:03:53.395Z,258.75
2017-10-06T07:04:53.343Z,264.38
2017-10-06T07:05:53.314Z,253.13
2017-10-06T07:06:53.295Z,230.63
2017-10-06T07:08:14.275Z,225.00
2017-10-06T07:08:53.265Z,185.63
2017-10-06T07:09:53.255Z,174.38
2017-10-06T07:10:53.221Z,157.50
2017-10-06T07:11:53.216Z,129.38
2017-10-06T07:12:53.173Z,112.50
2017-10-06T07:14:14.169Z,112.50
2017-10-06T07:14:53.141Z,118.13
2017-10-06T07:15:53.109Z,123.75
2017-10-06T07:16:53.095Z,106.88
2017-10-06T07:17:53.081Z,129.38
2017-10-06T07:18:53.057Z,140.63
2017-10-06T07:20:14.049Z,135.00
2017-10-06T07:20:53.013Z,112.50
2017-10-06T07:21:52.988Z,135.00
2017-10-06T07:22:52.973Z,174.38
2017-10-06T07:23:52.955Z,191.25
2017-10-06T07:24:52.933Z,174.38
2017-10-06T07:26:13.910Z,151.88
2017-10-06T07:26:52.902Z,157.50
2017-10-06T07:27:52.875Z,123.75
2017-10-06T07:28:52.860Z,135.00
2017-10-06T07:29:52.829Z,123.75
2017-10-06T07:30:52.800Z,106.88
2017-10-06T07:32:13.797Z,118.13
2017-10-06T07:32:52.762Z,146.25
2017-10-06T07:33:52.750Z,129.38
2017-10-06T07:34:52.721Z,123.75
2017-10-06T07:35:52.700Z,101.25
2017-10-06T07:36:52.683Z,106.88
2017-10-06T07:38:13.665Z,129.38
2017-10-06T07:38:52.636Z,140.63
2017-10-06T07:39:52.620Z,129.38
2017-10-06T07:40:52.600Z,174.38
2017-10-06T07:41:52.575Z,230.63
2017-10-06T07:42:52.597Z,213.75
2017-10-06T07:44:13.532Z,180.00
2017-10-06T07:44:52.515Z,196.88
2017-10-06T07:45:52.497Z,286.88
2017-10-06T07:46:52.472Z,382.50
2017-10-06T07:47:52.457Z,450.00
2017-10-06T07:48:52.429Z,450.00
2017-10-06T07:50:13.424Z,382.50
2017-10-06T07:50:52.396Z,315.00
2017-10-06T07:51:52.375Z,303.75
2017-10-06T07:52:52.356Z,371.25
2017-10-06T07:53:52.338Z,427.50
2017-10-06T07:54:52.309Z,444.38
2017-10-06T07:56:13.294Z,489.38
2017-10-06T07:56:52.270Z,472.50
2017-10-06T07:57:52.256Z,540.00
2017-10-06T07:58:52.242Z,433.13
2017-10-06T07:59:52.222Z,371.25
2017-10-06T08:00:52.191Z,337.50
2017-10-06T08:02:13.173Z,528.75
2017-10-06T08:02:52.159Z,1080.00
2017-10-06T08:03:52.141Z,866.25
2017-10-06T08:04:52.111Z,680.63
2017-10-06T08:05:52.103Z,613.13
2017-10-06T08:06:52.071Z,461.25
2017-10-06T08:08:13.066Z,433.13
2017-10-06T08:08:52.033Z,540.00
2017-10-06T08:09:52.031Z,416.25
2017-10-06T08:10:52.000Z,388.13
2017-10-06T08:11:51.994Z,562.50
2017-10-06T08:12:51.958Z,596.25
2017-10-06T08:14:12.939Z,742.50
2017-10-06T08:14:51.923Z,669.38
2017-10-06T08:15:51.904Z,748.13
2017-10-06T08:16:51.880Z,855.00
2017-10-06T08:17:51.868Z,1018.13
2017-10-06T08:18:51.850Z,1085.63
2017-10-06T08:20:12.831Z,540.00
2017-10-06T08:20:51.803Z,382.50
2017-10-06T08:21:51.816Z,354.38
2017-10-06T08:22:51.775Z,337.50
2017-10-06T08:23:51.753Z,388.13
2017-10-06T08:24:51.729Z,624.38
2017-10-06T08:26:12.723Z,725.63
2017-10-06T08:26:51.703Z,646.88
2017-10-06T08:27:51.698Z,489.38
2017-10-06T08:28:51.663Z,495.00
2017-10-06T08:29:51.668Z,483.75
2017-10-06T08:30:51.624Z,506.25
2017-10-06T08:32:12.626Z,736.88
2017-10-06T08:32:51.603Z,635.63
2017-10-06T08:33:51.575Z,961.88
2017-10-06T08:34:51.543Z,781.88
2017-10-06T08:35:51.541Z,556.88
2017-10-06T08:36:51.525Z,511.88
2017-10-06T08:38:12.518Z,326.25
2017-10-06T08:38:51.478Z,343.13
2017-10-06T08:39:51.484Z,337.50
2017-10-06T08:40:51.473Z,320.63
2017-10-06T08:41:51.432Z,433.13
2017-10-06T08:42:51.406Z,1901.25
2017-10-06T08:44:12.397Z,2638.13
2017-10-06T08:44:51.374Z,3189.38
2017-10-06T08:45:51.351Z,3352.50
2017-10-06T08:46:51.339Z,3144.38
2017-10-06T08:47:51.327Z,3335.63
2017-10-06T08:48:51.294Z,3318.75
2017-10-06T08:50:12.295Z,3352.50
2017-10-06T08:50:51.278Z,3369.38
2017-10-06T08:51:51.259Z,3335.63
2017-10-06T08:52:51.232Z,3363.75
2017-10-06T08:53:51.216Z,3414.38
2017-10-06T08:54:51.199Z,3251.25
2017-10-06T08:56:12.218Z,2975.63
2017-10-06T08:56:51.159Z,2671.88
2017-10-06T08:57:51.190Z,2047.50
2017-10-06T08:58:51.141Z,2475.00
2017-10-06T08:59:51.136Z,3673.13
2017-10-06T09:00:51.111Z,2688.75
2017-10-06T09:02:12.116Z,1305.00
2017-10-06T09:02:51.087Z,1546.88
2017-10-06T09:03:51.084Z,815.63
2017-10-06T09:04:51.110Z,1530.00
2017-10-06T09:05:51.313Z,1226.25
2017-10-06T09:06:51.042Z,1878.75
2017-10-06T09:08:12.057Z,2553.75
2017-10-06T09:08:51.021Z,2216.25
2017-10-06T09:09:51.013Z,2210.63
2017-10-06T09:10:51.001Z,1923.75
2017-10-06T09:11:50.988Z,3026.25
2017-10-06T09:12:50.980Z,2396.25
2017-10-06T09:14:11.966Z,2075.63
2017-10-06T09:14:50.946Z,2728.13
2017-10-06T09:15:50.943Z,1068.75
2017-10-06T09:16:50.941Z,1057.50
2017-10-06T09:17:50.949Z,1074.38
2017-10-06T09:18:50.905Z,1046.25
2017-10-06T09:20:11.894Z,866.25
2017-10-06T09:20:50.874Z,770.63
2017-10-06T09:21:50.883Z,1254.38
2017-10-06T09:22:50.852Z,2306.25
2017-10-06T09:23:50.834Z,2002.50
2017-10-06T09:24:50.843Z,1676.25
2017-10-06T09:26:11.817Z,1800.00
2017-10-06T09:26:50.799Z,2565.00
2017-10-06T09:27:50.787Z,961.88
2017-10-06T09:28:50.765Z,922.50
2017-10-06T09:29:50.765Z,1085.63
2017-10-06T09:30:50.786Z,770.63
2017-10-06T09:32:11.740Z,888.75
2017-10-06T09:32:50.719Z,1248.75
2017-10-06T09:33:50.708Z,1535.63
2017-10-06T09:34:50.702Z,1670.63
2017-10-06T09:35:50.703Z,945.00
2017-10-06T09:36:50.664Z,776.25
2017-10-06T09:38:11.656Z,613.13
2017-10-06T09:38:50.649Z,545.63
2017-10-06T09:39:50.636Z,540.00
2017-10-06T09:40:50.618Z,523.13
2017-10-06T09:41:50.628Z,556.88
2017-10-06T09:42:50.591Z,545.63
2017-10-06T09:44:11.597Z,585.00
2017-10-06T09:44:50.566Z,618.75
2017-10-06T09:45:50.552Z,748.13
2017-10-06T09:46:50.534Z,838.13
2017-10-06T09:47:50.524Z,1102.50
2017-10-06T09:48:50.503Z,826.88
2017-10-06T09:50:11.498Z,680.63
2017-10-06T09:50:50.473Z,641.25
2017-10-06T09:51:50.469Z,551.25
2017-10-06T09:52:50.450Z,742.50
2017-10-06T09:53:50.438Z,770.63
2017-10-06T09:54:50.422Z,770.63
2017-10-06T09:56:11.420Z,416.25
2017-10-06T09:56:50.399Z,393.75
2017-10-06T09:57:50.380Z,551.25
2017-10-06T09:58:50.363Z,781.88
2017-10-06T09:59:50.339Z,1951.88
2017-10-06T10:00:50.339Z,888.75
2017-10-06T10:02:11.304Z,1057.50
2017-10-06T10:02:50.325Z,1524.38
2017-10-06T10:03:50.282Z,2756.25
2017-10-06T10:04:50.260Z,2452.50
2017-10-06T10:05:50.250Z,3318.75
2017-10-06T10:06:50.247Z,1771.88
2017-10-06T10:08:11.228Z,3931.88
2017-10-06T10:08:50.196Z,1417.50
2017-10-06T10:09:50.190Z,1136.25
2017-10-06T10:10:50.186Z,1243.13
2017-10-06T10:11:50.146Z,2784.38
2017-10-06T10:12:50.144Z,2064.38
2017-10-06T10:14:11.128Z,2205.00
2017-10-06T10:14:50.109Z,1001.25
2017-10-06T10:15:50.113Z,523.13
2017-10-06T10:16:50.092Z,545.63
2017-10-06T10:17:50.082Z,562.50
2017-10-06T10:18:50.058Z,517.50
2017-10-06T10:20:11.051Z,405.00
2017-10-06T10:20:50.040Z,360.00
2017-10-06T10:21:50.020Z,348.75
2017-10-06T10:22:50.078Z,388.13
2017-10-06T10:23:49.992Z,444.38
2017-10-06T10:24:49.987Z,506.25
2017-10-06T10:26:10.979Z,579.38
2017-10-06T10:26:49.973Z,601.88
2017-10-06T10:27:49.951Z,663.75
2017-10-06T10:28:49.930Z,691.88
2017-10-06T10:29:49.906Z,708.75
2017-10-06T10:30:49.896Z,708.75
2017-10-06T10:32:10.881Z,720.00
2017-10-06T10:32:49.863Z,613.13
2017-10-06T10:33:49.859Z,489.38
2017-10-06T10:34:49.836Z,388.13
2017-10-06T10:35:49.813Z,320.63
2017-10-06T10:36:49.808Z,258.75
2017-10-06T10:38:10.802Z,230.63
2017-10-06T10:38:49.773Z,286.88
2017-10-06T10:39:49.758Z,450.00
2017-10-06T10:40:49.750Z,562.50
2017-10-06T10:41:49.736Z,736.88
2017-10-06T10:42:49.705Z,1001.25
2017-10-06T10:44:10.702Z,900.00
2017-10-06T10:44:49.683Z,765.00
2017-10-06T10:45:49.660Z,691.88
2017-10-06T10:46:49.645Z,658.13
2017-10-06T10:47:49.625Z,545.63
2017-10-06T10:48:49.617Z,489.38
2017-10-06T10:50:10.593Z,461.25
2017-10-06T10:50:49.570Z,461.25
2017-10-06T10:51:49.572Z,483.75
2017-10-06T10:52:49.553Z,517.50
2017-10-06T10:53:49.525Z,528.75
2017-10-06T10:54:49.538Z,528.75
2017-10-06T10:56:10.502Z,511.88
2017-10-06T10:56:49.492Z,517.50
2017-10-06T10:57:49.460Z,528.75
2017-10-06T10:58:49.442Z,506.25
2017-10-06T10:59:49.422Z,495.00
2017-10-06T11:00:49.415Z,523.13
2017-10-06T11:02:10.383Z,517.50
2017-10-06T11:02:49.377Z,506.25
2017-10-06T11:03:49.360Z,455.63
2017-10-06T11:04:49.340Z,416.25
2017-10-06T11:05:49.360Z,433.13
2017-10-06T11:06:49.312Z,461.25
2017-10-06T11:08:10.321Z,461.25
2017-10-06T11:08:49.272Z,393.75
2017-10-06T11:09:49.296Z,315.00
2017-10-06T11:10:49.248Z,275.63
2017-10-06T11:11:49.212Z,264.38
2017-10-06T11:12:49.188Z,275.63
2017-10-06T11:14:10.186Z,275.63
2017-10-06T11:14:49.278Z,264.38
2017-10-06T11:15:49.158Z,264.38
2017-10-06T11:16:49.131Z,241.88
2017-10-06T11:17:49.117Z,236.25
2017-10-06T11:18:49.100Z,236.25
2017-10-06T11:20:10.082Z,219.38
2017-10-06T11:20:49.065Z,230.63
2017-10-06T11:21:49.054Z,247.50
2017-10-06T11:22:49.023Z,213.75
2017-10-06T11:23:49.005Z,208.13
2017-10-06T11:24:48.991Z,208.13
2017-10-06T11:26:09.974Z,191.25
2017-10-06T11:26:48.951Z,180.00
2017-10-06T11:27:48.939Z,157.50
2017-10-06T11:28:48.925Z,135.00
2017-10-06T11:29:48.934Z,146.25
2017-10-06T11:30:48.879Z,163.13
2017-10-06T11:32:09.888Z,157.50
2017-10-06T11:32:48.851Z,151.88
2017-10-06T11:33:48.846Z,163.13
2017-10-06T11:34:48.841Z,163.13
2017-10-06T11:35:48.803Z,163.13
2017-10-06T11:36:48.771Z,157.50
2017-10-06T11:38:09.754Z,146.25
2017-10-06T11:38:48.753Z,135.00
2017-10-06T11:39:48.735Z,163.13
2017-10-06T11:40:48.724Z,163.13
2017-10-06T11:41:48.684Z,180.00
2017-10-06T11:42:48.687Z,185.63
2017-10-06T11:44:09.662Z,213.75
2017-10-06T11:44:48.631Z,275.63
2017-10-06T11:45:48.605Z,298.13
2017-10-06T11:46:48.623Z,281.25
2017-10-06T11:47:48.587Z,275.63
2017-10-06T11:48:48.578Z,393.75
2017-10-06T11:50:09.606Z,495.00
2017-10-06T11:50:48.583Z,585.00
2017-10-06T11:51:48.524Z,596.25
2017-10-06T11:52:48.478Z,562.50
2017-10-06T11:53:48.465Z,427.50
2017-10-06T11:54:48.480Z,360.00
2017-10-06T11:56:09.431Z,303.75
2017-10-06T11:56:48.428Z,264.38
2017-10-06T11:57:48.389Z,264.38
2017-10-06T11:58:48.362Z,270.00
2017-10-06T11:59:48.361Z,275.63
2017-10-06T12:00:48.403Z,292.50
2017-10-06T12:02:09.332Z,303.75
2017-10-06T12:02:48.289Z,388.13
2017-10-06T12:03:48.328Z,421.88
2017-10-06T12:04:48.253Z,376.88
2017-10-06T12:05:48.236Z,433.13
2017-10-06T12:06:48.236Z,590.63
2017-10-06T12:08:09.216Z,798.75
2017-10-06T12:08:48.170Z,945.00
2017-10-06T12:09:48.155Z,1119.38
2017-10-06T12:10:48.145Z,1569.38
2017-10-06T12:11:48.147Z,1631.25
2017-10-06T12:12:48.168Z,1771.88
2017-10-06T12:14:09.197Z,1698.75
2017-10-06T12:14:48.071Z,1771.88
2017-10-06T12:15:48.147Z,1434.38
2017-10-06T12:16:48.137Z,1760.63
2017-10-06T12:17:48.056Z,1096.88
2017-10-06T12:18:48.047Z,849.38
2017-10-06T12:20:09.030Z,1254.38
2017-10-06T12:20:48.002Z,1462.50
2017-10-06T12:21:47.989Z,1428.75
2017-10-06T12:22:47.966Z,1541.25
2017-10-06T12:23:47.941Z,1935.00
2017-10-06T12:24:47.911Z,1406.25
2017-10-06T12:26:08.938Z,1659.38
2017-10-06T12:26:47.894Z,1957.50
2017-10-06T12:27:47.864Z,1951.88
2017-10-06T12:28:47.853Z,2171.25
2017-10-06T12:29:47.835Z,1783.13
2017-10-06T12:30:47.816Z,1822.50
2017-10-06T12:32:08.844Z,1828.13
2017-10-06T12:32:47.799Z,1968.75
2017-10-06T12:33:47.769Z,1417.50
2017-10-06T12:34:47.775Z,2351.25
2017-10-06T12:35:47.753Z,1929.38
2017-10-06T12:36:47.748Z,1923.75
2017-10-06T12:38:08.737Z,1625.63
2017-10-06T12:38:47.723Z,1923.75
2017-10-06T12:39:47.696Z,1743.75
2017-10-06T12:40:47.689Z,1901.25
2017-10-06T12:41:47.665Z,1636.88
2017-10-06T12:42:47.664Z,1704.38
2017-10-06T12:44:08.657Z,1878.75
2017-10-06T12:44:47.653Z,1254.38
2017-10-06T12:45:47.633Z,798.75
2017-10-06T12:46:47.612Z,1861.88